sensor_id;sensor_type;location;lat;lon;timestamp;temperature;humidity
3478;DHT22;37937;61.490;23.506;2023-07-13T00:00:41;13.80;59.30
3478;DHT22;37937;61.490;23.506;2023-07-13T00:03:07;13.80;54.20
3478;DHT22;37937;61.490;23.506;2023-07-13T00:05:33;13.90;57.20
3478;DHT22;37937;61.490;23.506;2023-07-13T00:07:58;14.00;50.00
3478;DHT22;37937;61.490;23.506;2023-07-13T00:10:24;13.90;57.80
3478;DHT22;37937;61.490;23.506;2023-07-13T00:12:51;14.00;45.80
3478;DHT22;37937;61.490;23.506;2023-07-13T00:15:27;14.10;43.30
3478;DHT22;37937;61.490;23.506;2023-07-13T00:17:55;14.30;39.60
3478;DHT22;37937;61.490;23.506;2023-07-13T00:20:22;14.30;46.10
3478;DHT22;37937;61.490;23.506;2023-07-13T00:22:48;14.10;50.20
3478;DHT22;37937;61.490;23.506;2023-07-13T00:25:14;13.90;55.30
3478;DHT22;37937;61.490;23.506;2023-07-13T00:27:41;14.00;47.80
3478;DHT22;37937;61.490;23.506;2023-07-13T00:30:07;14.00;47.30
3478;DHT22;37937;61.490;23.506;2023-07-13T00:32:34;14.00;53.30
3478;DHT22;37937;61.490;23.506;2023-07-13T00:35:00;13.80;56.10
3478;DHT22;37937;61.490;23.506;2023-07-13T00:37:26;13.70;64.10
3478;DHT22;37937;61.490;23.506;2023-07-13T00:39:52;13.60;68.00
3478;DHT22;37937;61.490;23.506;2023-07-13T00:42:17;13.60;67.30
3478;DHT22;37937;61.490;23.506;2023-07-13T00:47:27;13.50;72.50
3478;DHT22;37937;61.490;23.506;2023-07-13T00:49:53;13.50;74.10
3478;DHT22;37937;61.490;23.506;2023-07-13T00:52:19;13.50;83.20
3478;DHT22;37937;61.490;23.506;2023-07-13T00:54:45;13.50;80.20
3478;DHT22;37937;61.490;23.506;2023-07-13T00:57:12;13.50;75.90
3478;DHT22;37937;61.490;23.506;2023-07-13T00:59:40;13.60;70.30
3478;DHT22;37937;61.490;23.506;2023-07-13T01:02:07;13.60;64.50
3478;DHT22;37937;61.490;23.506;2023-07-13T01:04:33;13.50;78.30
3478;DHT22;37937;61.490;23.506;2023-07-13T01:06:58;13.40;81.20
3478;DHT22;37937;61.490;23.506;2023-07-13T01:09:26;13.30;83.80
3478;DHT22;37937;61.490;23.506;2023-07-13T01:11:51;13.40;76.40
3478;DHT22;37937;61.490;23.506;2023-07-13T01:14:17;13.40;82.90
3478;DHT22;37937;61.490;23.506;2023-07-13T01:16:43;13.30;91.70
3478;DHT22;37937;61.490;23.506;2023-07-13T01:19:12;13.20;92.60
3478;DHT22;37937;61.490;23.506;2023-07-13T01:21:41;13.10;91.70
3478;DHT22;37937;61.490;23.506;2023-07-13T01:24:08;13.10;93.90
3478;DHT22;37937;61.490;23.506;2023-07-13T01:26:34;13.10;97.00
3478;DHT22;37937;61.490;23.506;2023-07-13T01:29:00;13.10;92.60
3478;DHT22;37937;61.490;23.506;2023-07-13T01:31:25;13.10;95.90
3478;DHT22;37937;61.490;23.506;2023-07-13T01:33:51;13.10;91.00
3478;DHT22;37937;61.490;23.506;2023-07-13T01:36:17;13.30;72.90
3478;DHT22;37937;61.490;23.506;2023-07-13T01:38:43;13.40;62.90
3478;DHT22;37937;61.490;23.506;2023-07-13T01:41:08;13.50;55.60
3478;DHT22;37937;61.490;23.506;2023-07-13T01:43:34;13.50;60.50
3478;DHT22;37937;61.490;23.506;2023-07-13T01:46:00;13.30;88.90
3478;DHT22;37937;61.490;23.506;2023-07-13T01:48:25;13.10;93.90
3478;DHT22;37937;61.490;23.506;2023-07-13T01:50:51;13.00;97.60
3478;DHT22;37937;61.490;23.506;2023-07-13T01:53:17;12.90;97.60
3478;DHT22;37937;61.490;23.506;2023-07-13T01:55:42;13.00;92.70
3478;DHT22;37937;61.490;23.506;2023-07-13T01:58:08;13.20;81.00
3478;DHT22;37937;61.490;23.506;2023-07-13T02:00:34;13.20;95.70
3478;DHT22;37937;61.490;23.506;2023-07-13T02:02:59;13.20;83.10
3478;DHT22;37937;61.490;23.506;2023-07-13T02:05:25;13.10;96.10
3478;DHT22;37937;61.490;23.506;2023-07-13T02:07:51;12.90;99.90
3478;DHT22;37937;61.490;23.506;2023-07-13T02:10:18;12.90;99.60
3478;DHT22;37937;61.490;23.506;2023-07-13T02:12:44;12.90;99.90
3478;DHT22;37937;61.490;23.506;2023-07-13T02:15:09;12.90;99.90
3478;DHT22;37937;61.490;23.506;2023-07-13T02:17:35;12.80;99.90
3478;DHT22;37937;61.490;23.506;2023-07-13T02:20:01;12.70;99.90
3478;DHT22;37937;61.490;23.506;2023-07-13T02:22:27;12.70;99.90
3478;DHT22;37937;61.490;23.506;2023-07-13T02:24:53;12.80;99.90
3478;DHT22;37937;61.490;23.506;2023-07-13T02:27:19;12.80;99.90
3478;DHT22;37937;61.490;23.506;2023-07-13T02:29:45;12.80;99.90
3478;DHT22;37937;61.490;23.506;2023-07-13T02:32:11;12.80;99.90
3478;DHT22;37937;61.490;23.506;2023-07-13T02:34:36;12.80;99.90
3478;DHT22;37937;61.490;23.506;2023-07-13T02:37:02;12.80;99.90
3478;DHT22;37937;61.490;23.506;2023-07-13T02:39:28;12.80;99.90
3478;DHT22;37937;61.490;23.506;2023-07-13T02:41:53;12.90;99.90
3478;DHT22;37937;61.490;23.506;2023-07-13T02:44:19;12.90;99.90
3478;DHT22;37937;61.490;23.506;2023-07-13T02:46:45;12.90;99.90
3478;DHT22;37937;61.490;23.506;2023-07-13T02:49:10;13.00;99.90
3478;DHT22;37937;61.490;23.506;2023-07-13T02:51:36;13.00;99.90
3478;DHT22;37937;61.490;23.506;2023-07-13T02:54:02;13.00;99.90
3478;DHT22;37937;61.490;23.506;2023-07-13T02:56:29;13.00;99.90
3478;DHT22;37937;61.490;23.506;2023-07-13T02:58:55;13.00;99.90
3478;DHT22;37937;61.490;23.506;2023-07-13T03:01:21;13.00;99.90
3478;DHT22;37937;61.490;23.506;2023-07-13T03:03:48;13.10;99.90
3478;DHT22;37937;61.490;23.506;2023-07-13T03:06:14;13.10;99.90
3478;DHT22;37937;61.490;23.506;2023-07-13T03:08:41;13.20;99.90
3478;DHT22;37937;61.490;23.506;2023-07-13T03:11:08;13.20;99.90
3478;DHT22;37937;61.490;23.506;2023-07-13T03:13:34;13.30;99.90
3478;DHT22;37937;61.490;23.506;2023-07-13T03:16:00;13.40;99.90
3478;DHT22;37937;61.490;23.506;2023-07-13T03:18:26;13.40;99.90
3478;DHT22;37937;61.490;23.506;2023-07-13T03:20:53;13.50;99.90
3478;DHT22;37937;61.490;23.506;2023-07-13T03:23:20;13.60;99.90
3478;DHT22;37937;61.490;23.506;2023-07-13T03:25:46;13.80;99.90
3478;DHT22;37937;61.490;23.506;2023-07-13T03:28:12;13.90;99.90
3478;DHT22;37937;61.490;23.506;2023-07-13T03:30:38;14.10;99.90
3478;DHT22;37937;61.490;23.506;2023-07-13T03:33:03;14.30;99.90
3478;DHT22;37937;61.490;23.506;2023-07-13T03:35:29;14.50;99.90
3478;DHT22;37937;61.490;23.506;2023-07-13T03:37:55;14.50;99.90
3478;DHT22;37937;61.490;23.506;2023-07-13T03:40:21;14.60;99.90
3478;DHT22;37937;61.490;23.506;2023-07-13T03:42:46;14.70;99.90
3478;DHT22;37937;61.490;23.506;2023-07-13T03:45:13;14.90;99.90
3478;DHT22;37937;61.490;23.506;2023-07-13T03:47:39;15.00;99.90
3478;DHT22;37937;61.490;23.506;2023-07-13T03:50:04;15.10;99.90
3478;DHT22;37937;61.490;23.506;2023-07-13T03:52:30;15.20;99.90
3478;DHT22;37937;61.490;23.506;2023-07-13T03:54:56;15.30;99.90
3478;DHT22;37937;61.490;23.506;2023-07-13T03:57:21;15.40;99.90
3478;DHT22;37937;61.490;23.506;2023-07-13T03:59:48;15.60;99.90
3478;DHT22;37937;61.490;23.506;2023-07-13T04:02:13;15.70;99.90
3478;DHT22;37937;61.490;23.506;2023-07-13T04:04:39;15.80;99.90
3478;DHT22;37937;61.490;23.506;2023-07-13T04:07:06;16.00;99.90
3478;DHT22;37937;61.490;23.506;2023-07-13T04:09:32;16.20;99.90
3478;DHT22;37937;61.490;23.506;2023-07-13T04:11:58;16.30;99.90
3478;DHT22;37937;61.490;23.506;2023-07-13T04:14:23;16.50;99.90
3478;DHT22;37937;61.490;23.506;2023-07-13T04:16:49;16.80;99.90
3478;DHT22;37937;61.490;23.506;2023-07-13T04:19:15;17.20;99.90
3478;DHT22;37937;61.490;23.506;2023-07-13T04:21:40;17.70;99.90
3478;DHT22;37937;61.490;23.506;2023-07-13T04:24:06;18.10;99.90
3478;DHT22;37937;61.490;23.506;2023-07-13T04:26:33;18.70;99.90
3478;DHT22;37937;61.490;23.506;2023-07-13T04:29:01;19.00;94.40
3478;DHT22;37937;61.490;23.506;2023-07-13T04:31:29;19.50;90.00
3478;DHT22;37937;61.490;23.506;2023-07-13T04:33:54;19.90;79.90
3478;DHT22;37937;61.490;23.506;2023-07-13T04:36:20;20.30;71.60
3478;DHT22;37937;61.490;23.506;2023-07-13T04:38:46;20.20;55.00
3478;DHT22;37937;61.490;23.506;2023-07-13T04:41:11;20.80;56.60
3478;DHT22;37937;61.490;23.506;2023-07-13T04:43:37;21.20;54.00
3478;DHT22;37937;61.490;23.506;2023-07-13T04:46:10;20.90;42.10
3478;DHT22;37937;61.490;23.506;2023-07-13T04:48:36;21.30;36.40
3478;DHT22;37937;61.490;23.506;2023-07-13T04:51:02;21.50;37.10
3478;DHT22;37937;61.490;23.506;2023-07-13T04:53:28;21.60;32.10
3478;DHT22;37937;61.490;23.506;2023-07-13T04:55:54;22.10;35.40
3478;DHT22;37937;61.490;23.506;2023-07-13T04:58:20;22.40;27.60
3478;DHT22;37937;61.490;23.506;2023-07-13T05:00:46;22.40;27.50
3478;DHT22;37937;61.490;23.506;2023-07-13T05:03:12;22.60;25.20
3478;DHT22;37937;61.490;23.506;2023-07-13T05:05:37;23.10;22.00
3478;DHT22;37937;61.490;23.506;2023-07-13T05:08:03;23.20;17.60
3478;DHT22;37937;61.490;23.506;2023-07-13T05:10:29;23.50;16.80
3478;DHT22;37937;61.490;23.506;2023-07-13T05:12:54;23.80;14.90
3478;DHT22;37937;61.490;23.506;2023-07-13T05:15:21;23.80;12.20
3478;DHT22;37937;61.490;23.506;2023-07-13T05:17:47;23.90;11.10
3478;DHT22;37937;61.490;23.506;2023-07-13T05:20:13;23.90;9.80
3478;DHT22;37937;61.490;23.506;2023-07-13T05:22:39;24.10;13.30
3478;DHT22;37937;61.490;23.506;2023-07-13T05:25:05;24.20;11.90
3478;DHT22;37937;61.490;23.506;2023-07-13T05:27:31;24.00;8.00
3478;DHT22;37937;61.490;23.506;2023-07-13T05:29:56;24.30;10.30
3478;DHT22;37937;61.490;23.506;2023-07-13T05:32:22;23.90;5.60
3478;DHT22;37937;61.490;23.506;2023-07-13T05:34:47;24.40;7.70
3478;DHT22;37937;61.490;23.506;2023-07-13T05:37:13;23.80;6.50
3478;DHT22;37937;61.490;23.506;2023-07-13T05:39:39;24.60;6.70
3478;DHT22;37937;61.490;23.506;2023-07-13T05:42:05;25.00;5.50
3478;DHT22;37937;61.490;23.506;2023-07-13T05:44:30;25.00;3.00
3478;DHT22;37937;61.490;23.506;2023-07-13T05:46:56;25.20;1.00
3478;DHT22;37937;61.490;23.506;2023-07-13T05:49:22;25.20;1.00
3478;DHT22;37937;61.490;23.506;2023-07-13T05:51:48;25.70;1.00
3478;DHT22;37937;61.490;23.506;2023-07-13T05:54:13;25.20;1.00
3478;DHT22;37937;61.490;23.506;2023-07-13T05:56:39;25.10;1.20
3478;DHT22;37937;61.490;23.506;2023-07-13T05:59:04;24.50;1.00
3478;DHT22;37937;61.490;23.506;2023-07-13T06:01:30;24.30;1.00
3478;DHT22;37937;61.490;23.506;2023-07-13T06:03:56;24.30;1.00
3478;DHT22;37937;61.490;23.506;2023-07-13T06:06:22;24.20;1.00
3478;DHT22;37937;61.490;23.506;2023-07-13T06:08:47;24.00;1.00
3478;DHT22;37937;61.490;23.506;2023-07-13T06:11:20;25.00;1.00
3478;DHT22;37937;61.490;23.506;2023-07-13T06:13:46;24.80;1.00
3478;DHT22;37937;61.490;23.506;2023-07-13T06:16:12;25.10;1.00
3478;DHT22;37937;61.490;23.506;2023-07-13T06:18:37;25.70;1.00
3478;DHT22;37937;61.490;23.506;2023-07-13T06:21:07;25.70;1.00
3478;DHT22;37937;61.490;23.506;2023-07-13T06:23:34;25.90;1.00
3478;DHT22;37937;61.490;23.506;2023-07-13T06:26:00;26.40;1.00
3478;DHT22;37937;61.490;23.506;2023-07-13T06:28:25;26.60;1.00
3478;DHT22;37937;61.490;23.506;2023-07-13T06:30:51;26.90;1.00
3478;DHT22;37937;61.490;23.506;2023-07-13T06:33:17;26.80;1.00
3478;DHT22;37937;61.490;23.506;2023-07-13T06:35:42;26.40;1.00
3478;DHT22;37937;61.490;23.506;2023-07-13T06:38:08;26.10;1.00
3478;DHT22;37937;61.490;23.506;2023-07-13T06:40:33;25.60;1.00
3478;DHT22;37937;61.490;23.506;2023-07-13T06:42:59;26.30;1.00
3478;DHT22;37937;61.490;23.506;2023-07-13T06:45:25;26.10;1.00
3478;DHT22;37937;61.490;23.506;2023-07-13T06:47:50;26.60;1.00
3478;DHT22;37937;61.490;23.506;2023-07-13T06:50:16;26.30;1.00
3478;DHT22;37937;61.490;23.506;2023-07-13T06:52:42;26.60;1.00
3478;DHT22;37937;61.490;23.506;2023-07-13T06:55:07;26.10;1.00
3478;DHT22;37937;61.490;23.506;2023-07-13T06:57:33;26.00;1.00
3478;DHT22;37937;61.490;23.506;2023-07-13T06:59:59;26.00;1.00
3478;DHT22;37937;61.490;23.506;2023-07-13T07:02:24;26.40;1.00
3478;DHT22;37937;61.490;23.506;2023-07-13T07:04:50;26.10;1.00
3478;DHT22;37937;61.490;23.506;2023-07-13T07:07:16;26.20;1.00
3478;DHT22;37937;61.490;23.506;2023-07-13T07:09:41;26.30;1.00
3478;DHT22;37937;61.490;23.506;2023-07-13T07:12:07;26.50;1.00
3478;DHT22;37937;61.490;23.506;2023-07-13T07:14:32;25.70;1.00
3478;DHT22;37937;61.490;23.506;2023-07-13T07:16:59;25.80;1.00
3478;DHT22;37937;61.490;23.506;2023-07-13T07:19:25;25.80;1.00
3478;DHT22;37937;61.490;23.506;2023-07-13T07:21:50;26.40;1.00
3478;DHT22;37937;61.490;23.506;2023-07-13T07:24:16;26.10;1.00
3478;DHT22;37937;61.490;23.506;2023-07-13T07:26:42;25.40;1.00
3478;DHT22;37937;61.490;23.506;2023-07-13T07:29:07;25.60;1.00
3478;DHT22;37937;61.490;23.506;2023-07-13T07:31:33;26.10;1.00
3478;DHT22;37937;61.490;23.506;2023-07-13T07:33:58;25.30;1.00
3478;DHT22;37937;61.490;23.506;2023-07-13T07:36:24;24.80;1.00
3478;DHT22;37937;61.490;23.506;2023-07-13T07:38:49;25.20;1.00
3478;DHT22;37937;61.490;23.506;2023-07-13T07:41:15;25.50;1.00
3478;DHT22;37937;61.490;23.506;2023-07-13T07:43:41;25.60;1.00
3478;DHT22;37937;61.490;23.506;2023-07-13T07:46:06;25.30;1.00
3478;DHT22;37937;61.490;23.506;2023-07-13T07:48:32;25.70;1.00
3478;DHT22;37937;61.490;23.506;2023-07-13T07:50:57;25.30;1.00
3478;DHT22;37937;61.490;23.506;2023-07-13T07:53:23;25.30;1.00
3478;DHT22;37937;61.490;23.506;2023-07-13T07:55:49;25.50;1.00
3478;DHT22;37937;61.490;23.506;2023-07-13T07:58:15;25.50;1.00
3478;DHT22;37937;61.490;23.506;2023-07-13T08:00:40;25.40;1.00
3478;DHT22;37937;61.490;23.506;2023-07-13T08:03:06;26.00;1.00
3478;DHT22;37937;61.490;23.506;2023-07-13T08:05:34;26.30;1.00
3478;DHT22;37937;61.490;23.506;2023-07-13T08:08:00;26.30;1.00
3478;DHT22;37937;61.490;23.506;2023-07-13T08:10:26;25.90;1.00
3478;DHT22;37937;61.490;23.506;2023-07-13T08:12:51;26.00;1.00
3478;DHT22;37937;61.490;23.506;2023-07-13T08:15:17;25.60;1.00
3478;DHT22;37937;61.490;23.506;2023-07-13T08:17:46;25.60;1.00
3478;DHT22;37937;61.490;23.506;2023-07-13T08:20:12;26.30;1.00
3478;DHT22;37937;61.490;23.506;2023-07-13T08:22:38;26.60;1.00
3478;DHT22;37937;61.490;23.506;2023-07-13T08:25:04;26.80;1.00
3478;DHT22;37937;61.490;23.506;2023-07-13T08:27:29;26.80;1.00
3478;DHT22;37937;61.490;23.506;2023-07-13T08:29:55;26.40;1.00
3478;DHT22;37937;61.490;23.506;2023-07-13T08:32:23;26.30;1.00
3478;DHT22;37937;61.490;23.506;2023-07-13T08:34:49;26.30;1.00
3478;DHT22;37937;61.490;23.506;2023-07-13T08:37:15;26.40;1.00
3478;DHT22;37937;61.490;23.506;2023-07-13T08:39:42;26.20;1.00
3478;DHT22;37937;61.490;23.506;2023-07-13T08:42:16;26.00;1.00
3478;DHT22;37937;61.490;23.506;2023-07-13T08:44:47;26.40;1.00
3478;DHT22;37937;61.490;23.506;2023-07-13T08:47:15;26.60;1.00
3478;DHT22;37937;61.490;23.506;2023-07-13T08:49:42;27.30;1.00
3478;DHT22;37937;61.490;23.506;2023-07-13T08:52:31;27.60;1.00
3478;DHT22;37937;61.490;23.506;2023-07-13T08:54:54;27.60;1.00
3478;DHT22;37937;61.490;23.506;2023-07-13T08:57:25;26.90;1.00
3478;DHT22;37937;61.490;23.506;2023-07-13T08:59:55;27.60;1.00
3478;DHT22;37937;61.490;23.506;2023-07-13T09:02:42;27.60;1.00
3478;DHT22;37937;61.490;23.506;2023-07-13T09:07:40;27.00;1.00
3478;DHT22;37937;61.490;23.506;2023-07-13T09:15:39;27.50;1.00
3478;DHT22;37937;61.490;23.506;2023-07-13T09:18:08;27.80;1.00
3478;DHT22;37937;61.490;23.506;2023-07-13T09:20:37;28.10;1.00
3478;DHT22;37937;61.490;23.506;2023-07-13T09:23:05;28.20;1.00
3478;DHT22;37937;61.490;23.506;2023-07-13T09:25:33;28.80;1.00
3478;DHT22;37937;61.490;23.506;2023-07-13T09:28:10;28.40;1.00
3478;DHT22;37937;61.490;23.506;2023-07-13T09:33:02;28.50;1.00
3478;DHT22;37937;61.490;23.506;2023-07-13T09:35:28;27.50;1.00
3478;DHT22;37937;61.490;23.506;2023-07-13T09:38:13;27.40;1.00
3478;DHT22;37937;61.490;23.506;2023-07-13T09:40:43;27.80;1.00
3478;DHT22;37937;61.490;23.506;2023-07-13T09:43:10;27.70;1.00
3478;DHT22;37937;61.490;23.506;2023-07-13T09:45:38;27.50;1.00
3478;DHT22;37937;61.490;23.506;2023-07-13T09:48:05;27.80;1.00
3478;DHT22;37937;61.490;23.506;2023-07-13T09:50:31;28.30;1.00
3478;DHT22;37937;61.490;23.506;2023-07-13T09:52:57;28.50;1.00
3478;DHT22;37937;61.490;23.506;2023-07-13T09:55:26;29.50;1.00
3478;DHT22;37937;61.490;23.506;2023-07-13T09:57:53;28.90;1.00
3478;DHT22;37937;61.490;23.506;2023-07-13T10:00:29;28.50;1.00
3478;DHT22;37937;61.490;23.506;2023-07-13T10:02:59;27.80;1.00
3478;DHT22;37937;61.490;23.506;2023-07-13T10:05:25;28.30;1.00
3478;DHT22;37937;61.490;23.506;2023-07-13T10:07:55;28.90;1.00
3478;DHT22;37937;61.490;23.506;2023-07-13T10:10:22;28.50;1.00
3478;DHT22;37937;61.490;23.506;2023-07-13T10:12:49;28.80;1.00
3478;DHT22;37937;61.490;23.506;2023-07-13T10:15:17;28.60;1.00
3478;DHT22;37937;61.490;23.506;2023-07-13T10:17:43;28.00;1.00
3478;DHT22;37937;61.490;23.506;2023-07-13T10:20:09;28.80;1.00
3478;DHT22;37937;61.490;23.506;2023-07-13T10:25:26;28.50;1.00
3478;DHT22;37937;61.490;23.506;2023-07-13T10:27:53;28.30;1.00
3478;DHT22;37937;61.490;23.506;2023-07-13T10:30:30;28.40;1.00
3478;DHT22;37937;61.490;23.506;2023-07-13T10:32:58;28.50;1.00
3478;DHT22;37937;61.490;23.506;2023-07-13T10:35:25;28.30;1.00
3478;DHT22;37937;61.490;23.506;2023-07-13T10:37:53;28.80;1.00
3478;DHT22;37937;61.490;23.506;2023-07-13T10:40:25;29.30;1.00
3478;DHT22;37937;61.490;23.506;2023-07-13T10:42:52;29.40;1.00
3478;DHT22;37937;61.490;23.506;2023-07-13T10:45:21;28.70;1.00
3478;DHT22;37937;61.490;23.506;2023-07-13T10:47:48;28.20;1.00
3478;DHT22;37937;61.490;23.506;2023-07-13T10:50:16;28.10;1.00
3478;DHT22;37937;61.490;23.506;2023-07-13T10:52:45;27.90;1.00
3478;DHT22;37937;61.490;23.506;2023-07-13T11:03:36;28.80;1.00
3478;DHT22;37937;61.490;23.506;2023-07-13T11:18:47;28.80;1.00
3478;DHT22;37937;61.490;23.506;2023-07-13T11:21:20;29.50;1.00
3478;DHT22;37937;61.490;23.506;2023-07-13T11:23:53;29.30;1.00
3478;DHT22;37937;61.490;23.506;2023-07-13T11:26:38;30.10;1.00
3478;DHT22;37937;61.490;23.506;2023-07-13T11:31:52;29.60;1.00
3478;DHT22;37937;61.490;23.506;2023-07-13T11:34:21;28.70;1.00
3478;DHT22;37937;61.490;23.506;2023-07-13T11:36:49;27.90;1.00
3478;DHT22;37937;61.490;23.506;2023-07-13T11:42:00;28.90;1.00
3478;DHT22;37937;61.490;23.506;2023-07-13T11:44:28;28.20;1.00
3478;DHT22;37937;61.490;23.506;2023-07-13T11:46:55;28.70;1.00
3478;DHT22;37937;61.490;23.506;2023-07-13T11:49:23;28.80;1.00
3478;DHT22;37937;61.490;23.506;2023-07-13T11:51:49;28.90;1.00
3478;DHT22;37937;61.490;23.506;2023-07-13T11:54:25;29.30;1.00
3478;DHT22;37937;61.490;23.506;2023-07-13T11:56:55;28.50;1.00
3478;DHT22;37937;61.490;23.506;2023-07-13T11:59:23;27.40;1.00
3478;DHT22;37937;61.490;23.506;2023-07-13T12:01:51;28.10;1.00
3478;DHT22;37937;61.490;23.506;2023-07-13T12:04:22;27.90;1.00
3478;DHT22;37937;61.490;23.506;2023-07-13T12:06:54;27.50;1.00
3478;DHT22;37937;61.490;23.506;2023-07-13T12:09:20;27.50;1.00
3478;DHT22;37937;61.490;23.506;2023-07-13T12:11:50;26.90;1.00
3478;DHT22;37937;61.490;23.506;2023-07-13T12:14:17;27.40;1.00
3478;DHT22;37937;61.490;23.506;2023-07-13T12:16:43;27.70;1.00
3478;DHT22;37937;61.490;23.506;2023-07-13T12:19:16;27.20;1.00
3478;DHT22;37937;61.490;23.506;2023-07-13T12:21:42;27.20;1.00
3478;DHT22;37937;61.490;23.506;2023-07-13T12:24:16;27.50;1.00
3478;DHT22;37937;61.490;23.506;2023-07-13T12:26:42;27.80;1.00
3478;DHT22;37937;61.490;23.506;2023-07-13T12:29:12;27.70;1.00
3478;DHT22;37937;61.490;23.506;2023-07-13T12:31:41;27.60;1.00
3478;DHT22;37937;61.490;23.506;2023-07-13T12:36:36;28.00;1.00
3478;DHT22;37937;61.490;23.506;2023-07-13T12:41:39;28.30;1.00
3478;DHT22;37937;61.490;23.506;2023-07-13T12:44:08;27.60;1.00
3478;DHT22;37937;61.490;23.506;2023-07-13T12:46:35;27.80;1.00
3478;DHT22;37937;61.490;23.506;2023-07-13T12:49:00;28.00;1.00
3478;DHT22;37937;61.490;23.506;2023-07-13T12:51:32;28.50;1.00
3478;DHT22;37937;61.490;23.506;2023-07-13T12:54:19;28.20;1.00
3478;DHT22;37937;61.490;23.506;2023-07-13T12:56:45;28.20;1.00
3478;DHT22;37937;61.490;23.506;2023-07-13T12:59:18;28.10;1.00
3478;DHT22;37937;61.490;23.506;2023-07-13T13:01:45;27.90;1.00
3478;DHT22;37937;61.490;23.506;2023-07-13T13:04:11;27.80;1.00
3478;DHT22;37937;61.490;23.506;2023-07-13T13:06:38;28.10;1.00
3478;DHT22;37937;61.490;23.506;2023-07-13T13:09:14;28.10;1.00
3478;DHT22;37937;61.490;23.506;2023-07-13T13:11:40;28.30;1.00
3478;DHT22;37937;61.490;23.506;2023-07-13T13:14:06;27.80;1.00
3478;DHT22;37937;61.490;23.506;2023-07-13T13:16:34;27.60;1.00
3478;DHT22;37937;61.490;23.506;2023-07-13T13:19:44;27.70;1.00
3478;DHT22;37937;61.490;23.506;2023-07-13T13:21:52;27.80;1.00
3478;DHT22;37937;61.490;23.506;2023-07-13T13:24:19;27.70;1.00
3478;DHT22;37937;61.490;23.506;2023-07-13T13:26:45;27.80;1.00
3478;DHT22;37937;61.490;23.506;2023-07-13T13:29:15;27.40;1.00
3478;DHT22;37937;61.490;23.506;2023-07-13T13:31:42;27.30;1.00
3478;DHT22;37937;61.490;23.506;2023-07-13T13:34:09;27.10;1.00
3478;DHT22;37937;61.490;23.506;2023-07-13T13:36:35;26.50;1.00
3478;DHT22;37937;61.490;23.506;2023-07-13T13:39:01;26.60;1.00
3478;DHT22;37937;61.490;23.506;2023-07-13T13:41:27;26.80;1.00
3478;DHT22;37937;61.490;23.506;2023-07-13T13:43:53;26.70;1.00
3478;DHT22;37937;61.490;23.506;2023-07-13T13:46:20;26.50;1.00
3478;DHT22;37937;61.490;23.506;2023-07-13T13:48:47;26.60;1.00
3478;DHT22;37937;61.490;23.506;2023-07-13T13:51:21;26.30;1.00
3478;DHT22;37937;61.490;23.506;2023-07-13T13:53:48;26.10;1.00
3478;DHT22;37937;61.490;23.506;2023-07-13T13:56:15;25.70;1.00
3478;DHT22;37937;61.490;23.506;2023-07-13T13:58:41;25.40;1.00
3478;DHT22;37937;61.490;23.506;2023-07-13T14:01:13;25.30;1.00
3478;DHT22;37937;61.490;23.506;2023-07-13T14:03:39;25.30;1.00
3478;DHT22;37937;61.490;23.506;2023-07-13T14:06:05;25.40;1.00
3478;DHT22;37937;61.490;23.506;2023-07-13T14:08:31;25.10;1.00
3478;DHT22;37937;61.490;23.506;2023-07-13T14:10:57;25.10;1.00
3478;DHT22;37937;61.490;23.506;2023-07-13T14:13:32;25.20;1.00
3478;DHT22;37937;61.490;23.506;2023-07-13T14:15:59;24.90;1.00
3478;DHT22;37937;61.490;23.506;2023-07-13T14:18:25;25.00;1.00
3478;DHT22;37937;61.490;23.506;2023-07-13T14:20:50;25.20;1.00
3478;DHT22;37937;61.490;23.506;2023-07-13T14:23:17;25.00;1.00
3478;DHT22;37937;61.490;23.506;2023-07-13T14:25:44;24.80;1.00
3478;DHT22;37937;61.490;23.506;2023-07-13T14:30:41;24.80;1.00
3478;DHT22;37937;61.490;23.506;2023-07-13T14:33:11;24.90;1.00
3478;DHT22;37937;61.490;23.506;2023-07-13T14:35:37;24.80;1.00
3478;DHT22;37937;61.490;23.506;2023-07-13T14:38:03;24.80;1.00
3478;DHT22;37937;61.490;23.506;2023-07-13T14:40:30;24.50;1.00
3478;DHT22;37937;61.490;23.506;2023-07-13T14:42:55;24.40;1.00
3478;DHT22;37937;61.490;23.506;2023-07-13T14:45:21;24.40;1.00
3478;DHT22;37937;61.490;23.506;2023-07-13T14:47:47;24.50;1.00
3478;DHT22;37937;61.490;23.506;2023-07-13T14:50:19;24.30;1.00
3478;DHT22;37937;61.490;23.506;2023-07-13T14:52:45;24.30;1.00
3478;DHT22;37937;61.490;23.506;2023-07-13T14:55:15;24.00;1.00
3478;DHT22;37937;61.490;23.506;2023-07-13T14:57:41;24.00;1.00
3478;DHT22;37937;61.490;23.506;2023-07-13T15:02:36;24.00;1.00
3478;DHT22;37937;61.490;23.506;2023-07-13T15:05:05;24.30;1.00
3478;DHT22;37937;61.490;23.506;2023-07-13T15:07:34;24.10;1.00
3478;DHT22;37937;61.490;23.506;2023-07-13T15:10:01;24.00;1.00
3478;DHT22;37937;61.490;23.506;2023-07-13T15:12:27;24.20;1.00
3478;DHT22;37937;61.490;23.506;2023-07-13T15:14:53;24.30;1.00
3478;DHT22;37937;61.490;23.506;2023-07-13T15:17:27;24.00;1.00
3478;DHT22;37937;61.490;23.506;2023-07-13T15:19:56;24.00;1.00
3478;DHT22;37937;61.490;23.506;2023-07-13T15:22:22;24.00;1.00
3478;DHT22;37937;61.490;23.506;2023-07-13T15:24:48;23.80;1.00
3478;DHT22;37937;61.490;23.506;2023-07-13T15:27:13;23.80;1.00
3478;DHT22;37937;61.490;23.506;2023-07-13T15:29:39;23.80;1.00
3478;DHT22;37937;61.490;23.506;2023-07-13T15:32:17;23.30;1.00
3478;DHT22;37937;61.490;23.506;2023-07-13T15:34:44;23.30;1.00
3478;DHT22;37937;61.490;23.506;2023-07-13T15:37:12;23.30;1.00
3478;DHT22;37937;61.490;23.506;2023-07-13T15:39:38;23.40;1.00
3478;DHT22;37937;61.490;23.506;2023-07-13T15:42:04;23.30;1.00
3478;DHT22;37937;61.490;23.506;2023-07-13T15:44:31;23.20;1.00
3478;DHT22;37937;61.490;23.506;2023-07-13T15:46:57;23.40;1.00
3478;DHT22;37937;61.490;23.506;2023-07-13T15:49:25;23.50;1.00
3478;DHT22;37937;61.490;23.506;2023-07-13T15:51:51;23.40;1.00
3478;DHT22;37937;61.490;23.506;2023-07-13T15:54:17;23.40;1.00
3478;DHT22;37937;61.490;23.506;2023-07-13T15:56:45;23.40;1.00
3478;DHT22;37937;61.490;23.506;2023-07-13T15:59:13;23.60;1.00
3478;DHT22;37937;61.490;23.506;2023-07-13T16:01:39;23.30;1.00
3478;DHT22;37937;61.490;23.506;2023-07-13T16:04:07;23.50;1.00
3478;DHT22;37937;61.490;23.506;2023-07-13T16:06:37;23.20;1.00
3478;DHT22;37937;61.490;23.506;2023-07-13T16:09:05;23.30;1.00
3478;DHT22;37937;61.490;23.506;2023-07-13T16:11:32;23.40;1.00
3478;DHT22;37937;61.490;23.506;2023-07-13T16:13:58;23.50;1.00
3478;DHT22;37937;61.490;23.506;2023-07-13T16:16:30;23.30;1.00
3478;DHT22;37937;61.490;23.506;2023-07-13T16:18:57;23.10;1.00
3478;DHT22;37937;61.490;23.506;2023-07-13T16:21:23;22.90;1.00
3478;DHT22;37937;61.490;23.506;2023-07-13T16:23:50;22.90;1.00
3478;DHT22;37937;61.490;23.506;2023-07-13T16:26:30;22.90;1.00
3478;DHT22;37937;61.490;23.506;2023-07-13T16:29:24;23.10;1.00
3478;DHT22;37937;61.490;23.506;2023-07-13T16:34:34;22.90;1.00